Time;durP1;ratioP1;P1;durP2;ratioP2;P2;SDS_P1;SDS_P2;PMS_P1;PMS_P2;Temp;Humidity;BMP_temperature;BMP_pressure;BME280_temperature;BME280_humidity;BME280_pressure;Samples;Min_cycle;Max_cycle;Signal;HPM_P1;HPM_P2
2022/04/07 00:00:03;;;;;;;34.15;4.50;;;;;;;7.93;94.35;99122.34;5100551;28;20185;-79
2022/04/07 00:02:29;;;;;;;23.15;4.38;;;;;;;7.99;93.66;99106.81;5098500;28;20039;-79
2022/04/07 00:04:54;;;;;;;21.25;3.72;;;;;;;8.05;92.83;99106.94;5098727;28;20028;-80
2022/04/07 00:07:19;;;;;;;24.85;3.95;;;;;;;8.09;92.58;99113.59;5097531;28;20123;-79
2022/04/07 00:09:45;;;;;;;29.02;4.85;;;;;;;8.12;92.16;99113.25;5079664;28;20517;-79
2022/04/07 00:12:10;;;;;;;25.60;4.80;;;;;;;8.18;91.84;99100.31;5079082;28;20034;-79
2022/04/07 00:14:36;;;;;;;20.85;4.15;;;;;;;8.19;91.71;99092.22;5078440;28;20059;-78
2022/04/07 00:17:01;;;;;;;25.23;4.03;;;;;;;8.22;91.22;99102.47;5096497;28;20036;-79
2022/04/07 00:19:26;;;;;;;26.00;3.65;;;;;;;8.23;91.51;99088.25;5078409;28;20071;-79
2022/04/07 00:21:52;;;;;;;25.00;3.97;;;;;;;8.26;90.71;99098.50;5096319;28;20441;-80
2022/04/07 00:24:17;;;;;;;22.17;3.83;;;;;;;8.31;90.18;99090.06;5078804;28;20536;-78
2022/04/07 00:26:43;;;;;;;22.25;3.67;;;;;;;8.35;89.96;99082.63;5096180;28;20038;-79
2022/04/07 00:29:08;;;;;;;23.27;4.20;;;;;;;8.36;89.96;99077.13;5077996;28;20484;-79
2022/04/07 00:31:40;;;;;;;26.50;4.43;;;;;;;8.38;89.77;99063.72;5096362;28;20057;-78
2022/04/07 00:34:05;;;;;;;;;;;;;;;8.35;90.27;99064.88;5097552;28;20028;-79
2022/04/07 00:36:31;;;;;;;30.60;4.70;;;;;;;8.38;89.92;99061.06;5095871;28;19961;-80
2022/04/07 00:38:56;;;;;;;22.73;3.88;;;;;;;8.34;89.78;99057.91;5096557;28;20464;-81
2022/04/07 00:41:22;;;;;;;23.15;4.03;;;;;;;8.35;89.07;99051.63;5095863;28;20149;-78
2022/04/07 00:43:53;;;;;;;28.65;4.63;;;;;;;8.36;89.04;99028.59;5095967;28;20074;-79
2022/04/07 00:46:19;;;;;;;24.63;4.70;;;;;;;8.37;88.50;99030.25;5096552;28;20028;-79
2022/04/07 00:48:45;;;;;;;22.25;3.65;;;;;;;8.37;88.37;99028.41;5096562;28;20032;-79
2022/04/07 00:51:11;;;;;;;26.42;4.28;;;;;;;8.37;87.96;99017.81;5096479;28;20111;-80
2022/04/07 00:53:36;;;;;;;27.30;4.47;;;;;;;8.38;87.94;99030.09;5096428;28;20114;-78
2022/04/07 00:56:02;;;;;;;29.40;5.15;;;;;;;8.38;88.31;99010.72;5096458;28;20107;-82
2022/04/07 00:58:29;;;;;;;23.85;3.95;;;;;;;8.39;88.65;99018.50;5078196;28;20174;-80
2022/04/07 01:00:56;;;;;;;32.17;5.20;;;;;;;8.37;89.21;99009.06;5096803;28;20151;-80
2022/04/07 01:03:22;;;;;;;27.83;4.10;;;;;;;8.42;88.63;98996.97;5078826;28;20421;-81
2022/04/07 01:05:49;;;;;;;30.98;4.82;;;;;;;8.45;88.51;99007.25;5082368;28;20028;-79
2022/04/07 01:08:14;;;;;;;29.10;4.78;;;;;;;8.45;88.75;99001.94;5086925;28;20035;-80
2022/04/07 01:10:40;;;;;;;26.67;4.78;;;;;;;8.47;88.81;98988.53;5106709;28;20036;-78
2022/04/07 01:13:06;;;;;;;29.92;5.80;;;;;;;8.48;88.85;98976.94;5097630;28;20059;-79
2022/04/07 01:15:32;;;;;;;27.13;4.78;;;;;;;8.49;89.01;98964.50;5096199;28;20465;-79
2022/04/07 01:17:58;;;;;;;21.10;4.22;;;;;;;8.45;89.90;98974.63;5096406;28;20046;-78
2022/04/07 01:20:23;;;;;;;26.95;4.95;;;;;;;8.35;91.88;98963.38;5095835;28;20487;-80
2022/04/07 01:22:51;;;;;;;33.88;4.97;;;;;;;8.18;93.66;98959.91;5095677;28;20137;-78
2022/04/07 01:25:17;;;;;;;35.25;4.80;;;;;;;7.98;95.90;98949.69;5095031;28;20028;-78
2022/04/07 01:27:48;;;;;;;33.50;4.70;;;;;;;7.85;97.30;98952.03;5095594;28;20058;-78
2022/04/07 01:30:14;;;;;;;31.17;5.20;;;;;;;7.75;98.32;98936.34;5096004;28;20084;-82
2022/04/07 01:32:45;;;;;;;30.45;4.82;;;;;;;7.68;98.74;98932.69;5076814;28;20447;-79
2022/04/07 01:35:12;;;;;;;41.13;5.27;;;;;;;7.63;98.97;98935.00;5094849;28;20035;-80
2022/04/07 01:37:39;;;;;;;44.30;7.15;;;;;;;7.63;98.91;98912.03;5095405;28;20097;-81
2022/04/07 01:40:07;;;;;;;34.42;5.25;;;;;;;7.58;99.24;98896.66;5094753;28;20043;-80
2022/04/07 01:42:33;;;;;;;34.95;5.30;;;;;;;7.58;99.25;98920.47;5095440;28;20035;-80
2022/04/07 01:45:02;;;;;;;42.35;6.78;;;;;;;7.55;99.72;98914.66;5077215;28;20394;-80
2022/04/07 01:47:29;;;;;;;40.45;6.13;;;;;;;7.53;100.00;98903.44;5076652;28;20035;-80
2022/04/07 01:50:06;;;;;;;45.15;6.85;;;;;;;7.49;100.00;98880.94;5095199;28;20024;-80
2022/04/07 01:52:32;;;;;;;41.35;5.47;;;;;;;7.48;100.00;98895.16;5094424;28;20028;-81
2022/04/07 01:55:00;;;;;;;37.47;6.03;;;;;;;7.48;100.00;98864.25;5094740;28;20457;-80
2022/04/07 01:57:26;;;;;;;38.35;5.32;;;;;;;7.46;100.00;98890.03;5076395;28;20063;-81
2022/04/07 01:59:52;;;;;;;43.47;6.28;;;;;;;7.47;100.00;98867.06;5094339;28;20059;-81
2022/04/07 02:02:18;;;;;;;54.17;7.00;;;;;;;7.50;100.00;98879.94;5076929;28;20040;-80
2022/04/07 02:05:03;;;;;;;44.83;5.80;;;;;;;7.62;99.29;98905.06;5094343;28;20040;-79
2022/04/07 02:07:30;;;;;;;34.50;6.53;;;;;;;7.69;98.35;98907.88;5094586;28;20114;-81
2022/04/07 02:09:56;;;;;;;40.92;5.13;;;;;;;7.76;97.41;98900.91;5075931;28;20105;-81
2022/04/07 02:12:21;;;;;;;52.33;7.28;;;;;;;7.81;96.74;98881.88;5094417;28;20464;-83
2022/04/07 02:14:48;;;;;;;53.45;7.03;;;;;;;7.86;96.30;98874.25;5094387;28;20071;-84
2022/04/07 02:17:17;;;;;;;39.00;5.97;;;;;;;7.84;95.96;98861.19;5094919;28;20472;-77
2022/04/07 02:19:44;;;;;;;50.88;7.72;;;;;;;7.94;95.14;98882.16;5076009;28;20040;-79
2022/04/07 02:22:09;;;;;;;44.08;7.07;;;;;;;7.97;94.81;98855.34;5094553;28;20058;-79
2022/04/07 02:24:37;;;;;;;39.20;5.95;;;;;;;7.98;94.57;98841.09;5094247;28;20024;-80
2022/04/07 02:27:03;;;;;;;36.78;6.20;;;;;;;7.99;94.15;98844.59;5094534;28;20460;-80
2022/04/07 02:29:28;;;;;;;41.70;8.00;;;;;;;8.01;93.54;98826.72;5093810;28;20043;-81
2022/04/07 02:31:53;;;;;;;43.63;6.70;;;;;;;8.04;93.17;98850.19;5093603;28;20420;-79
2022/04/07 02:34:19;;;;;;;45.38;6.05;;;;;;;8.06;93.11;98853.50;5075889;28;20028;-82
2022/04/07 02:36:44;;;;;;;34.80;5.95;;;;;;;8.07;92.89;98818.88;5094031;28;20492;-80
2022/04/07 02:39:10;;;;;;;45.28;6.20;;;;;;;8.12;92.30;98819.22;5093855;28;20036;-78
2022/04/07 02:41:35;;;;;;;47.03;7.32;;;;;;;8.11;92.56;98783.13;5094280;28;20449;-79
2022/04/07 02:44:02;;;;;;;41.90;7.65;;;;;;;8.12;92.17;98786.56;5075687;28;20032;-78
2022/04/07 02:46:28;;;;;;;45.13;5.82;;;;;;;8.11;92.06;98804.31;5093091;28;20036;-78
2022/04/07 02:48:53;;;;;;;36.72;6.40;;;;;;;8.07;92.49;98787.09;5093990;28;20042;-78
2022/04/07 02:51:18;;;;;;;46.92;6.57;;;;;;;7.98;93.44;98793.44;5094362;28;20039;-77
2022/04/07 02:53:43;;;;;;;48.17;6.20;;;;;;;7.90;93.93;98796.94;5058573;28;20036;-72
2022/04/07 02:56:09;;;;;;;39.83;5.85;;;;;;;7.89;93.84;98781.25;5093115;28;20050;-72
2022/04/07 02:58:34;;;;;;;35.40;5.93;;;;;;;7.92;93.37;98763.16;5093144;28;20460;-73
2022/04/07 03:01:00;;;;;;;28.02;4.80;;;;;;;7.92;93.09;98760.53;5093085;28;20024;-74
2022/04/07 03:03:25;;;;;;;46.10;6.72;;;;;;;7.91;93.09;98744.81;5092798;28;20536;-71
2022/04/07 03:05:51;;;;;;;36.85;6.70;;;;;;;7.91;92.82;98735.06;5093012;28;20028;-71
2022/04/07 03:08:16;;;;;;;32.42;5.70;;;;;;;7.91;92.89;98744.81;5057880;28;20088;-71
2022/04/07 03:10:41;;;;;;;31.88;4.97;;;;;;;7.97;92.09;98735.34;5093241;28;20032;-72
2022/04/07 03:13:07;;;;;;;33.47;5.32;;;;;;;7.98;92.25;98737.81;5075241;28;20032;-72
2022/04/07 03:15:32;;;;;;;41.42;6.50;;;;;;;7.95;92.57;98733.69;5093510;28;20104;-72
2022/04/07 03:17:57;;;;;;;34.13;4.88;;;;;;;7.98;92.55;98719.28;5092869;28;20040;-72
2022/04/07 03:20:23;;;;;;;36.40;6.30;;;;;;;8.00;92.19;98706.72;5093537;28;20028;-72
2022/04/07 03:22:48;;;;;;;34.47;4.15;;;;;;;8.01;92.15;98697.75;5074748;28;20036;-72
2022/04/07 03:25:14;;;;;;;28.35;5.47;;;;;;;8.00;92.77;98685.53;5092515;28;20528;-72
2022/04/07 03:27:39;;;;;;;36.90;5.70;;;;;;;7.96;93.31;98686.88;5093148;28;20051;-72
2022/04/07 03:30:05;;;;;;;26.90;5.07;;;;;;;7.96;93.41;98684.22;5093149;28;20039;-71
2022/04/07 03:32:30;;;;;;;20.98;4.50;;;;;;;7.87;94.98;98658.81;5092571;28;20051;-73
2022/04/07 03:34:56;;;;;;;28.80;4.82;;;;;;;7.72;96.62;98641.00;5092416;28;20101;-71
2022/04/07 03:37:21;;;;;;;32.92;4.97;;;;;;;7.61;97.89;98640.56;5092793;28;20071;-72
2022/04/07 03:39:47;;;;;;;33.83;5.38;;;;;;;7.47;98.90;98627.06;5092481;28;20047;-72
2022/04/07 03:42:13;;;;;;;29.02;4.25;;;;;;;7.41;99.74;98614.53;5093162;28;20086;-72
2022/04/07 03:44:38;;;;;;;28.90;4.32;;;;;;;7.36;100.00;98614.22;5074758;28;20024;-72
2022/04/07 03:47:04;;;;;;;29.77;5.35;;;;;;;7.32;100.00;98592.59;5093087;28;20426;-72
2022/04/07 03:49:29;;;;;;;27.67;4.45;;;;;;;7.32;100.00;98586.47;5075123;28;20064;-72
2022/04/07 03:51:54;;;;;;;28.55;4.90;;;;;;;7.33;100.00;98611.91;5074366;28;20310;-79
2022/04/07 03:54:20;;;;;;;23.52;4.38;;;;;;;7.36;99.98;98577.19;5092407;28;20119;-72
2022/04/07 03:56:45;;;;;;;36.92;4.32;;;;;;;7.36;99.96;98572.72;5092690;28;20387;-72
2022/04/07 03:59:11;;;;;;;36.25;5.22;;;;;;;7.35;99.82;98557.03;5078166;28;20032;-72
2022/04/07 04:01:39;;;;;;;26.25;4.40;;;;;;;7.36;99.73;98559.50;5096051;28;20040;-72
2022/04/07 04:04:05;;;;;;;22.30;4.20;;;;;;;7.34;99.72;98548.25;5096228;28;20130;-72
2022/04/07 04:06:32;;;;;;;28.00;4.55;;;;;;;7.32;99.87;98549.44;5096352;28;20051;-72
2022/04/07 04:08:57;;;;;;;20.85;3.78;;;;;;;7.23;100.00;98530.97;5095908;28;20093;-71
2022/04/07 04:11:22;;;;;;;24.00;4.20;;;;;;;7.17;100.00;98529.00;5095977;28;20460;-71
2022/04/07 04:13:48;;;;;;;17.85;3.35;;;;;;;7.12;100.00;98506.72;5096150;28;20430;-71
2022/04/07 04:16:15;;;;;;;33.88;5.43;;;;;;;7.12;100.00;98502.28;5077895;28;20032;-72
2022/04/07 04:18:44;;;;;;;25.15;3.92;;;;;;;7.09;100.00;98499.97;5095932;28;20111;-71
2022/04/07 04:21:10;;;;;;;28.85;3.65;;;;;;;7.06;100.00;98501.16;5095803;28;20123;-72
2022/04/07 04:23:35;;;;;;;25.75;4.13;;;;;;;7.04;100.00;98484.63;5096343;28;20066;-72
2022/04/07 04:26:01;;;;;;;17.10;3.35;;;;;;;7.05;100.00;98464.31;5095753;28;20059;-73
2022/04/07 04:28:26;;;;;;;25.02;3.75;;;;;;;7.02;100.00;98446.97;5096365;28;20103;-72
2022/04/07 04:30:52;;;;;;;24.42;3.63;;;;;;;7.01;100.00;98461.16;5095795;28;20471;-72
2022/04/07 04:33:17;;;;;;;22.70;3.60;;;;;;;7.03;100.00;98482.16;5095096;28;20035;-72
2022/04/07 04:35:44;;;;;;;15.05;2.70;;;;;;;7.09;100.00;98455.03;5096015;28;20028;-72
2022/04/07 04:38:09;;;;;;;22.45;3.40;;;;;;;7.03;100.00;98439.84;5096135;28;20086;-73
2022/04/07 04:40:35;;;;;;;20.83;3.58;;;;;;;6.99;100.00;98435.91;5095851;28;20456;-74
2022/04/07 04:43:00;;;;;;;23.25;3.95;;;;;;;6.96;100.00;98434.44;5096129;28;20043;-82
2022/04/07 04:45:26;;;;;;;17.80;3.10;;;;;;;6.99;100.00;98443.84;5095568;28;20422;-73
2022/04/07 04:47:52;;;;;;;16.90;2.90;;;;;;;6.96;100.00;98417.75;5095424;28;20064;-73
2022/04/07 04:50:18;;;;;;;16.80;3.47;;;;;;;6.97;100.00;98407.00;5095197;28;20032;-73
2022/04/07 04:52:44;;;;;;;21.17;3.03;;;;;;;6.97;100.00;98377.94;5096055;28;20081;-72
2022/04/07 04:55:09;;;;;;;15.63;2.58;;;;;;;6.97;100.00;98400.88;5094967;28;20035;-73
2022/04/07 04:57:35;;;;;;;12.98;2.30;;;;;;;6.90;100.00;98382.28;5095671;28;20036;-72
2022/04/07 05:00:00;;;;;;;20.63;3.33;;;;;;;6.86;100.00;98384.44;5095704;28;20167;-73
2022/04/07 05:02:26;;;;;;;23.63;3.15;;;;;;;6.84;100.00;98380.34;5095055;28;20040;-73
2022/04/07 05:04:51;;;;;;;19.65;3.03;;;;;;;6.81;100.00;98404.47;5095764;28;20450;-72
2022/04/07 05:07:17;;;;;;;16.48;2.75;;;;;;;6.82;100.00;98469.53;5095064;28;20032;-73
2022/04/07 05:09:42;;;;;;;14.05;3.00;;;;;;;6.85;100.00;98500.91;5094434;28;20028;-73
2022/04/07 05:12:08;;;;;;;4.35;1.17;;;;;;;5.89;99.89;98506.06;5094858;28;20357;-73
2022/04/07 05:14:33;;;;;;;21.67;1.90;;;;;;;4.69;93.34;98534.53;5094942;28;20357;-72
2022/04/07 05:16:59;;;;;;;7.50;1.50;;;;;;;3.92;94.33;98532.56;5094792;28;20032;-73
2022/04/07 05:19:24;;;;;;;5.93;1.50;;;;;;;3.56;97.73;98532.59;5094934;28;20048;-74
2022/04/07 05:21:50;;;;;;;9.65;1.73;;;;;;;3.39;100.00;98554.44;5094956;28;20124;-73
2022/04/07 05:24:19;;;;;;;10.82;1.38;;;;;;;3.31;100.00;98523.63;5095268;28;20097;-73
2022/04/07 05:26:45;;;;;;;17.05;2.22;;;;;;;3.27;100.00;98520.50;5094756;28;20039;-73
2022/04/07 05:29:10;;;;;;;16.98;2.13;;;;;;;3.29;100.00;98522.97;5094479;28;20044;-73
2022/04/07 05:31:36;;;;;;;17.77;2.20;;;;;;;3.31;100.00;98531.53;5076188;28;20574;-73
2022/04/07 05:34:01;;;;;;;19.20;3.05;;;;;;;3.34;100.00;98547.00;5075519;28;20032;-72
2022/04/07 05:36:27;;;;;;;24.27;3.58;;;;;;;3.37;100.00;98532.75;5093796;28;20188;-73
2022/04/07 05:38:53;;;;;;;26.65;2.92;;;;;;;3.44;100.00;98546.94;5094448;28;20036;-73
2022/04/07 05:41:18;;;;;;;21.42;3.50;;;;;;;3.50;100.00;98539.28;5093889;28;20058;-72
2022/04/07 05:43:44;;;;;;;24.73;3.38;;;;;;;3.59;100.00;98534.91;5094066;28;20490;-74
2022/04/07 05:46:09;;;;;;;23.85;2.90;;;;;;;3.69;100.00;98526.97;5094390;28;20106;-73
2022/04/07 05:48:34;;;;;;;13.93;2.15;;;;;;;3.75;100.00;98528.97;5093695;28;20536;-74
2022/04/07 05:51:01;;;;;;;17.95;1.92;;;;;;;3.84;100.00;98522.00;5075754;28;20387;-72
2022/04/07 05:53:26;;;;;;;9.57;1.63;;;;;;;3.94;100.00;98516.63;5093910;28;20118;-72
2022/04/07 05:55:52;;;;;;;12.57;2.00;;;;;;;4.01;100.00;98534.25;5093767;28;20123;-72
2022/04/07 05:58:17;;;;;;;17.52;2.05;;;;;;;4.03;100.00;98527.06;5075721;28;20034;-72
2022/04/07 06:00:43;;;;;;;17.77;1.90;;;;;;;4.05;100.00;98532.16;5093753;28;20452;-72
2022/04/07 06:03:08;;;;;;;14.35;2.03;;;;;;;4.05;100.00;98558.47;5093508;28;20032;-71
2022/04/07 06:05:35;;;;;;;12.85;2.78;;;;;;;4.03;100.00;98519.16;5093936;28;20034;-71
2022/04/07 06:08:01;;;;;;;10.82;1.67;;;;;;;4.01;100.00;98499.25;5094008;28;20032;-71
2022/04/07 06:10:28;;;;;;;12.07;1.42;;;;;;;3.97;100.00;98500.53;5093193;28;20043;-72
2022/04/07 06:12:54;;;;;;;10.38;1.50;;;;;;;3.97;100.00;98490.00;5092921;28;20115;-72
2022/04/07 06:15:20;;;;;;;10.65;1.70;;;;;;;3.93;100.00;98471.06;5093499;28;20036;-72
2022/04/07 06:17:45;;;;;;;9.27;1.60;;;;;;;3.91;100.00;98467.75;5075355;28;20028;-72
2022/04/07 06:20:12;;;;;;;14.68;1.95;;;;;;;3.91;100.00;98454.59;5093469;28;20198;-71
2022/04/07 06:22:42;;;;;;;14.93;1.73;;;;;;;3.93;100.00;98454.47;5093631;28;20063;-72
2022/04/07 06:25:08;;;;;;;13.35;1.60;;;;;;;3.98;100.00;98439.03;5093229;28;20067;-72
2022/04/07 06:27:44;;;;;;;8.07;1.88;;;;;;;4.01;100.00;98454.50;5074624;28;20024;-72
2022/04/07 06:30:18;;;;;;;12.32;2.00;;;;;;;4.05;100.00;98459.31;5092461;28;20035;-71
2022/04/07 06:32:45;;;;;;;7.13;1.58;;;;;;;4.04;100.00;98444.47;5075201;28;20044;-72
2022/04/07 06:35:12;;;;;;;13.82;1.92;;;;;;;4.06;100.00;98429.38;5074152;28;20092;-72
2022/04/07 06:37:57;;;;;;;14.20;1.83;;;;;;;4.07;100.00;98424.94;5091966;28;20052;-72
2022/04/07 06:40:28;;;;;;;13.23;1.50;;;;;;;4.05;100.00;98424.28;5091688;28;20040;-72
2022/04/07 06:42:55;;;;;;;17.80;2.30;;;;;;;4.06;100.00;98428.53;5092840;28;20040;-72
2022/04/07 06:45:21;;;;;;;16.58;2.00;;;;;;;4.05;100.00;98421.66;5092416;28;20024;-72
2022/04/07 06:47:46;;;;;;;9.68;1.60;;;;;;;4.05;100.00;98401.41;5092567;28;20459;-72
2022/04/07 06:50:16;;;;;;;18.63;2.28;;;;;;;4.05;100.00;98397.97;5092238;28;20110;-72
2022/04/07 06:52:42;;;;;;;12.93;1.73;;;;;;;4.07;100.00;98390.72;5092266;28;20028;-73
2022/04/07 06:55:09;;;;;;;8.40;1.55;;;;;;;4.09;100.00;98390.56;5092352;28;20036;-72
2022/04/07 06:57:51;;;;;;;9.77;2.00;;;;;;;4.10;100.00;98387.78;5091962;28;20114;-72
2022/04/07 07:00:20;;;;;;;9.07;1.90;;;;;;;4.12;100.00;98371.81;5092408;28;20028;-72
2022/04/07 07:02:52;;;;;;;13.75;1.83;;;;;;;4.15;100.00;98363.59;5092611;28;20411;-71
2022/04/07 07:05:18;;;;;;;12.15;1.45;;;;;;;4.16;100.00;98357.38;5074385;28;20132;-80
2022/04/07 07:07:44;;;;;;;7.53;1.70;;;;;;;4.20;100.00;98356.91;5073711;28;20058;-71
2022/04/07 07:10:10;;;;;;;8.43;2.50;;;;;;;4.31;100.00;98347.06;5091605;28;20032;-72
2022/04/07 07:12:36;;;;;;;9.65;1.55;;;;;;;4.36;100.00;98329.81;5091905;28;20102;-73
2022/04/07 07:15:01;;;;;;;9.68;1.60;;;;;;;4.37;100.00;98328.00;5091486;28;20061;-72
2022/04/07 07:17:33;;;;;;;7.38;1.60;;;;;;;4.42;100.00;98328.34;5091687;28;20051;-73
2022/04/07 07:20:10;;;;;;;6.00;1.33;;;;;;;4.45;100.00;98312.22;5091576;28;20036;-73
2022/04/07 07:22:37;;;;;;;8.45;1.73;;;;;;;4.58;100.00;98319.63;5092337;28;20036;-71
2022/04/07 07:25:03;;;;;;;10.30;1.60;;;;;;;4.79;100.00;98308.63;5091951;28;20057;-72
2022/04/07 07:27:38;;;;;;;9.38;1.60;;;;;;;4.92;100.00;98306.31;5091841;28;20040;-72
2022/04/07 07:30:08;;;;;;;7.85;1.20;;;;;;;5.10;100.00;98298.25;5091775;28;20043;-72
2022/04/07 07:32:33;;;;;;;12.07;2.13;;;;;;;5.30;100.00;98292.63;5093363;28;20036;-72
2022/04/07 07:34:59;;;;;;;15.60;2.33;;;;;;;5.38;100.00;98300.53;5096029;28;20101;-72
2022/04/07 07:37:24;;;;;;;12.63;1.63;;;;;;;5.58;100.00;98305.41;5095543;28;20048;-73
2022/04/07 07:39:50;;;;;;;5.07;1.40;;;;;;;5.83;100.00;98300.91;5095835;28;20106;-72
2022/04/07 07:42:16;;;;;;;7.35;1.30;;;;;;;5.96;100.00;98313.56;5095867;28;20032;-73
2022/04/07 07:44:41;;;;;;;12.02;2.08;;;;;;;6.09;99.89;98308.59;5095969;28;20089;-72
2022/04/07 07:47:07;;;;;;;14.93;1.50;;;;;;;6.25;100.00;98305.03;5095554;28;20032;-73
2022/04/07 07:49:32;;;;;;;12.55;1.90;;;;;;;6.47;99.15;98300.78;5095720;28;20115;-72
2022/04/07 07:51:57;;;;;;;10.25;2.10;;;;;;;6.70;97.95;98308.72;5095501;28;20040;-73
2022/04/07 07:54:23;;;;;;;11.02;1.75;;;;;;;6.93;96.38;98299.16;5096068;28;20126;-81
2022/04/07 07:56:48;;;;;;;6.60;1.67;;;;;;;7.09;94.92;98300.81;5061088;28;20028;-72
2022/04/07 07:59:14;;;;;;;13.05;2.00;;;;;;;7.29;94.16;98287.94;5095477;28;20107;-73
2022/04/07 08:01:39;;;;;;;8.88;2.20;;;;;;;7.53;91.56;98297.44;5095714;28;20096;-73
2022/04/07 08:04:05;;;;;;;14.45;2.28;;;;;;;7.81;89.52;98294.97;5095346;28;20032;-73
2022/04/07 08:06:30;;;;;;;16.10;2.03;;;;;;;8.06;89.62;98305.25;5077230;28;20074;-73
2022/04/07 08:08:55;;;;;;;12.75;1.52;;;;;;;8.55;88.91;98312.56;5077096;28;20052;-72
2022/04/07 08:11:21;;;;;;;10.23;2.10;;;;;;;9.06;85.19;98305.50;5095338;28;20468;-72
2022/04/07 08:13:46;;;;;;;12.63;2.38;;;;;;;9.27;81.02;98294.88;5095048;28;20035;-72
2022/04/07 08:16:11;;;;;;;15.73;2.78;;;;;;;9.53;82.12;98296.06;5095267;28;20024;-72
2022/04/07 08:18:37;;;;;;;8.80;1.80;;;;;;;9.38;80.89;98293.53;5095167;28;20067;-72
2022/04/07 08:21:02;;;;;;;8.90;1.88;;;;;;;9.29;81.71;98298.16;5095311;28;20032;-72
2022/04/07 08:23:28;;;;;;;15.38;2.28;;;;;;;9.11;79.55;98305.78;5095183;28;20032;-72
2022/04/07 08:25:53;;;;;;;16.63;2.45;;;;;;;8.89;81.04;98299.66;5095162;28;20032;-72
2022/04/07 08:28:19;;;;;;;18.48;2.70;;;;;;;8.87;81.57;98289.25;5094902;28;20032;-71
2022/04/07 08:30:44;;;;;;;10.70;2.20;;;;;;;8.78;80.60;98312.41;5095346;28;20469;-71
2022/04/07 08:33:10;;;;;;;16.13;2.75;;;;;;;8.94;78.44;98305.19;5094750;28;20041;-71
2022/04/07 08:35:35;;;;;;;11.25;2.25;;;;;;;9.01;75.18;98314.03;5095210;28;20487;-73
2022/04/07 08:38:00;;;;;;;13.95;2.83;;;;;;;9.45;75.77;98298.88;5095436;28;20127;-70
2022/04/07 08:40:27;;;;;;;29.27;4.32;;;;;;;9.50;72.62;98299.94;5094688;28;20035;-72
2022/04/07 08:42:53;;;;;;;15.70;2.65;;;;;;;9.34;74.21;98318.81;5094325;28;20039;-72
2022/04/07 08:45:19;;;;;;;17.60;2.90;;;;;;;9.68;72.12;98322.50;5075872;28;20032;-72
2022/04/07 08:47:48;;;;;;;22.63;3.50;;;;;;;9.84;70.27;98324.88;5094525;28;20039;-72
2022/04/07 08:50:14;;;;;;;13.85;2.80;;;;;;;10.12;70.44;98309.88;5095150;28;20112;-71
2022/04/07 08:52:40;;;;;;;21.15;3.20;;;;;;;10.34;68.32;98318.56;5094685;28;20168;-72
2022/04/07 08:55:06;;;;;;;14.93;2.88;;;;;;;10.63;66.53;98309.47;5094569;28;20131;-72
2022/04/07 08:57:32;;;;;;;16.15;3.35;;;;;;;11.36;65.65;98323.84;5094490;28;20031;-72
2022/04/07 08:59:58;;;;;;;14.13;3.25;;;;;;;12.10;62.08;98305.91;5094302;28;20460;-72
2022/04/07 09:02:23;;;;;;;16.25;2.67;;;;;;;13.02;59.15;98311.78;5094112;28;20469;-71
2022/04/07 09:04:56;;;;;;;16.60;3.28;;;;;;;13.32;56.81;98316.47;5094249;28;20456;-72
2022/04/07 09:07:29;;;;;;;13.65;3.13;;;;;;;13.47;56.03;98320.72;5094976;28;20162;-72
2022/04/07 09:10:00;;;;;;;12.98;3.13;;;;;;;13.60;55.45;98325.09;5094253;28;20057;-71
2022/04/07 09:12:25;;;;;;;13.20;3.00;;;;;;;13.19;54.80;98340.59;5094206;28;20453;-71
2022/04/07 09:14:56;;;;;;;16.92;2.72;;;;;;;13.35;56.03;98336.63;5094387;28;20032;-71
2022/04/07 09:17:22;;;;;;;10.18;2.78;;;;;;;12.35;56.79;98352.16;5094349;28;20024;-72
2022/04/07 09:19:50;;;;;;;12.60;2.70;;;;;;;11.59;60.24;98332.22;5093616;28;20032;-71
2022/04/07 09:22:16;;;;;;;12.77;2.50;;;;;;;11.47;61.98;98340.03;5094426;28;20037;-71
2022/04/07 09:24:42;;;;;;;13.23;2.67;;;;;;;10.96;62.77;98337.97;5094038;28;20036;-71
2022/04/07 09:27:10;;;;;;;12.68;2.75;;;;;;;11.05;61.21;98357.22;5093407;28;20111;-71
2022/04/07 09:29:44;;;;;;;16.45;3.35;;;;;;;11.00;61.54;98359.66;5093678;28;20063;-72
2022/04/07 09:32:23;;;;;;;18.67;2.85;;;;;;;10.64;62.54;98364.28;5094037;28;20136;-72
2022/04/07 09:34:53;;;;;;;17.17;2.75;;;;;;;10.47;64.89;98358.50;5076304;28;20388;-71
2022/04/07 09:37:24;;;;;;;15.88;3.30;;;;;;;10.31;64.29;98366.78;5075987;28;20043;-71
2022/04/07 09:40:10;;;;;;;15.13;2.80;;;;;;;10.16;64.32;98369.56;5094073;28;20111;-71
2022/04/07 09:42:36;;;;;;;15.23;2.97;;;;;;;9.91;64.14;98353.28;5093681;28;20091;-77
2022/04/07 09:45:04;;;;;;;19.98;2.65;;;;;;;9.27;67.38;98408.97;5094343;28;20028;-71
2022/04/07 09:47:43;;;;;;;17.40;3.33;;;;;;;9.15;69.00;98378.63;5094162;28;20031;-71
2022/04/07 09:50:29;;;;;;;21.73;3.97;;;;;;;9.10;68.85;98383.72;5094112;28;20119;-71
2022/04/07 09:53:05;;;;;;;19.35;3.35;;;;;;;8.75;68.58;98376.44;5094534;28;20028;-74
2022/04/07 09:55:42;;;;;;;17.83;3.50;;;;;;;8.87;69.85;98384.72;5093392;28;20024;-73
2022/04/07 09:58:09;;;;;;;22.15;3.47;;;;;;;9.05;69.74;98388.78;5094269;28;20032;-71
2022/04/07 10:00:35;;;;;;;26.85;3.58;;;;;;;9.04;67.34;98393.25;5076411;28;20031;-71
2022/04/07 10:03:02;;;;;;;26.08;4.45;;;;;;;8.98;67.81;98389.50;5093254;28;20032;-71
2022/04/07 10:05:28;;;;;;;19.65;3.47;;;;;;;8.86;67.21;98369.81;5093661;28;20032;-72
2022/04/07 10:07:56;;;;;;;21.48;3.08;;;;;;;8.67;67.36;98405.69;5093755;28;20047;-72
2022/04/07 10:10:22;;;;;;;18.35;3.40;;;;;;;8.62;67.51;98405.44;5093762;28;20055;-72
2022/04/07 10:12:47;;;;;;;22.65;3.97;;;;;;;8.63;68.11;98405.25;5093296;28;20028;-74
2022/04/07 10:15:14;;;;;;;25.92;4.43;;;;;;;8.65;67.95;98410.38;5093701;28;20379;-72
2022/04/07 10:17:40;;;;;;;27.75;3.83;;;;;;;8.68;67.77;98423.25;5075516;28;20043;-73
2022/04/07 10:20:09;;;;;;;21.50;3.70;;;;;;;8.77;67.92;98392.97;5093672;28;20024;-71
2022/04/07 10:22:53;;;;;;;31.23;4.47;;;;;;;8.99;67.43;98401.75;5093508;28;20039;-71
2022/04/07 10:25:22;;;;;;;26.10;3.97;;;;;;;9.24;66.63;98390.78;5093525;28;20024;-72
2022/04/07 10:27:51;;;;;;;25.60;5.07;;;;;;;9.48;64.87;98405.50;5093349;28;20040;-72
2022/04/07 10:30:17;;;;;;;36.88;4.20;;;;;;;9.42;64.51;98400.94;5093767;28;20055;-73
2022/04/07 10:32:54;;;;;;;19.98;3.78;;;;;;;10.10;62.97;98403.06;5075292;28;20040;-72
2022/04/07 10:35:40;;;;;;;23.25;4.30;;;;;;;12.03;57.19;98404.53;5093902;28;20023;-73
2022/04/07 10:38:07;;;;;;;22.38;4.00;;;;;;;12.90;54.34;98411.41;5074663;28;20405;-73
2022/04/07 10:40:35;;;;;;;23.20;3.85;;;;;;;13.31;51.41;98394.94;5093802;28;20111;-72
2022/04/07 10:43:07;;;;;;;23.63;4.00;;;;;;;13.98;49.76;98409.66;5093107;28;20044;-72
2022/04/07 10:45:33;;;;;;;;;;;;;;;14.68;48.91;98406.63;5094170;28;20031;-72
2022/04/07 10:48:25;;;;;;;19.92;4.00;;;;;;;15.43;45.46;98410.75;5093504;28;19977;-72
2022/04/07 10:50:53;;;;;;;20.48;5.47;;;;;;;14.51;47.28;98433.16;5093461;28;20036;-73
2022/04/07 10:53:25;;;;;;;22.83;4.65;;;;;;;14.51;48.66;98424.31;5092698;28;20484;-72
2022/04/07 10:56:07;;;;;;;19.83;4.07;;;;;;;14.52;48.27;98433.97;5093712;28;20036;-72
2022/04/07 10:58:45;;;;;;;26.30;4.22;;;;;;;14.98;47.89;98438.78;5093311;28;20056;-72
2022/04/07 11:01:37;;;;;;;18.35;3.72;;;;;;;14.41;47.01;98432.88;5092801;28;20395;-73
2022/04/07 11:04:17;;;;;;;24.23;4.53;;;;;;;14.29;49.54;98417.53;5047407;28;20044;-72
2022/04/07 11:07:05;;;;;;;21.23;4.38;;;;;;;14.40;47.35;98444.59;5092205;28;20453;-73
2022/04/07 11:09:53;;;;;;;21.27;4.85;;;;;;;15.44;45.05;98409.69;5092803;28;20059;-73
2022/04/07 11:12:23;;;;;;;21.40;4.10;;;;;;;14.78;45.48;98428.34;5079532;28;20076;-73
2022/04/07 11:14:54;;;;;;;22.02;3.97;;;;;;;14.65;47.34;98412.44;5074295;28;20479;-73
2022/04/07 11:17:37;;;;;;;21.17;4.72;;;;;;;13.98;47.61;98426.50;5093559;28;20353;-72
2022/04/07 11:20:16;;;;;;;21.10;4.05;;;;;;;13.40;49.10;98424.91;5092732;28;20038;-73
2022/04/07 11:22:47;;;;;;;22.60;4.25;;;;;;;13.43;50.47;98439.69;5092701;28;20165;-73
2022/04/07 11:25:14;;;;;;;18.33;3.97;;;;;;;12.83;50.14;98435.47;5092811;28;20036;-73
2022/04/07 11:27:43;;;;;;;23.25;4.45;;;;;;;12.65;52.51;98447.66;5092645;28;20028;-72
2022/04/07 11:30:13;;;;;;;15.98;3.80;;;;;;;11.90;52.89;98433.84;5092095;28;20024;-73
2022/04/07 11:32:41;;;;;;;25.67;4.32;;;;;;;11.74;55.31;98448.41;5092422;28;20028;-73